createdAt,value
2022-12-29T08:32:00.862Z,12397.0
2022-12-29T08:33:00.856Z,12107.5
2022-12-29T08:34:00.879Z,11871.4
2022-12-29T08:35:04.125Z,11714.0
2022-12-29T08:36:02.097Z,11601.6
2022-12-29T08:37:00.864Z,12022.6
2022-12-29T08:38:00.863Z,12350.1
2022-12-29T08:39:00.986Z,12697.1
2022-12-29T08:41:15.950Z,13217.6
2022-12-29T08:42:01.108Z,12966.8
2022-12-29T08:43:00.872Z,12751.9
2022-12-29T08:44:00.871Z,12976.8
2022-12-29T08:45:01.567Z,13186.7
2022-12-29T08:46:00.919Z,13396.7
2022-12-29T08:47:16.027Z,13406.5
2022-12-29T08:48:15.880Z,13416.4
2022-12-29T08:49:16.920Z,13639.1
2022-12-29T08:50:15.891Z,13861.9
2022-12-29T08:51:18.196Z,14084.6
2022-12-29T08:52:15.898Z,14126.7
2022-12-29T08:53:15.877Z,14168.9
2022-12-29T08:54:01.091Z,14029.7
2022-12-29T08:55:00.874Z,13890.6
2022-12-29T08:56:04.922Z,13751.5
2022-12-29T08:57:00.872Z,13938.1
2022-12-29T08:58:00.863Z,14124.8
2022-12-29T09:22:00.419Z,18009.0
2022-12-29T09:23:00.363Z,19965.0
2022-12-29T09:24:00.422Z,20646.0
2022-12-29T09:25:01.636Z,21100.0
2022-12-29T09:26:03.061Z,21424.3
2022-12-29T09:27:00.385Z,22849.8
2022-12-29T09:28:01.445Z,23958.4
2022-12-29T09:29:00.371Z,25132.2
2022-12-29T09:52:00.797Z,24383.7
2022-12-29T09:53:00.755Z,24739.5
2022-12-29T09:54:01.001Z,24665.4
2022-12-29T09:55:05.235Z,24616.0
2022-12-29T09:56:00.722Z,24580.7
2022-12-29T09:57:00.731Z,23968.3
2022-12-29T09:58:00.727Z,23491.9
2022-12-29T09:59:00.726Z,22838.1
2022-12-29T10:01:00.769Z,21857.4
2022-12-29T10:02:00.978Z,21734.8
2022-12-29T10:03:00.881Z,21629.8
2022-12-29T10:04:00.732Z,21484.0
2022-12-29T10:05:15.811Z,21202.1
2022-12-29T10:06:15.740Z,20920.1
2022-12-29T10:07:28.350Z,20907.3
2022-12-29T10:08:00.722Z,20894.4
2022-12-29T10:09:00.761Z,20623.6
2022-12-29T10:10:00.764Z,20352.8
2022-12-29T10:30:16.793Z,17187.0
2022-12-29T10:32:00.380Z,16901.0
2022-12-29T10:33:00.152Z,16758.0
2022-12-29T10:34:00.234Z,16104.0
2022-12-29T10:35:00.469Z,15668.0
2022-12-29T11:00:32.090Z,37989.0
2022-12-29T11:02:15.727Z,36275.7
2022-12-29T11:03:15.864Z,35419.0
2022-12-29T11:04:15.691Z,37454.8
2022-12-29T11:05:00.908Z,38812.0
2022-12-29T11:30:33.220Z,54526.0
2022-12-29T11:32:16.081Z,51159.7
2022-12-29T11:33:02.209Z,49476.5
2022-12-29T11:34:00.956Z,52688.2
2022-12-29T11:35:01.119Z,54829.3
2022-12-29T11:36:01.031Z,56358.7
2022-12-29T11:37:00.967Z,55398.4
2022-12-29T12:02:00.525Z,31423.3
2022-12-29T12:03:00.428Z,30103.5
2022-12-29T12:04:00.476Z,33502.2
2022-12-29T12:05:15.371Z,35768.0
2022-12-29T12:06:15.338Z,37386.4
2022-12-29T12:07:15.369Z,39944.9
2022-12-29T12:08:00.553Z,41934.8
2022-12-29T12:09:00.336Z,41770.2
2022-12-29T12:10:06.893Z,41635.5
2022-12-29T12:11:00.366Z,41523.3
2022-12-29T12:30:01.791Z,14306.0
2022-12-29T12:32:01.777Z,13247.3
2022-12-29T12:33:00.694Z,12718.0
2022-12-29T12:34:00.800Z,12737.4
2022-12-29T12:35:01.085Z,12750.3
2022-12-29T12:36:00.750Z,12759.6
2022-12-29T12:37:00.716Z,13146.9
2022-12-29T12:38:00.703Z,13448.1
2022-12-29T12:39:00.695Z,13555.5
2022-12-29T12:40:00.907Z,13643.4
2022-12-29T12:41:00.748Z,13716.6
2022-12-29T12:42:01.194Z,13669.2
2022-12-29T12:43:00.708Z,13628.5
2022-12-29T12:44:00.759Z,13615.5
2022-12-29T12:45:07.864Z,13557.4
2022-12-29T12:46:00.830Z,13499.3
2022-12-29T12:47:00.684Z,13666.3
2022-12-29T12:48:00.749Z,13833.4
2022-12-29T12:49:00.693Z,13850.0
2022-12-29T12:50:02.161Z,13866.6
2022-12-29T12:51:00.708Z,13883.2
2022-12-29T12:52:05.005Z,13885.5
2022-12-29T12:53:00.725Z,13887.7
2022-12-29T12:54:00.720Z,13511.1
2022-12-29T12:55:17.667Z,13134.5
2022-12-29T12:56:00.699Z,12757.9
2022-12-29T13:22:05.930Z,29767.0
2022-12-29T13:23:01.307Z,28187.0
2022-12-29T13:24:00.271Z,26573.6
2022-12-29T13:25:15.375Z,25498.0
2022-12-29T13:26:05.269Z,24729.7
2022-12-29T13:27:00.307Z,23603.5
2022-12-29T13:28:00.273Z,22727.6
2022-12-29T13:29:00.269Z,22501.7
2022-12-29T13:30:01.188Z,22316.9
2022-12-29T13:31:15.420Z,22162.9
2022-12-29T13:32:02.413Z,22318.1
2022-12-29T13:33:01.480Z,22451.1
2022-12-29T13:34:02.531Z,23112.1
2022-12-29T13:35:01.478Z,23074.8
2022-12-29T13:36:00.602Z,23037.5
2022-12-29T14:00:31.547Z,8568.0
2022-12-29T14:02:01.063Z,9751.3
2022-12-29T14:03:00.865Z,10343.0
2022-12-29T14:04:00.820Z,11045.8
2022-12-29T14:05:00.694Z,11514.3
2022-12-29T14:06:00.827Z,11849.0
2022-12-29T14:07:00.901Z,11715.4
2022-12-29T14:08:00.681Z,11611.4
2022-12-29T14:09:00.686Z,11373.9
2022-12-29T14:11:00.799Z,11017.6
2022-12-29T14:12:00.885Z,11032.4
2022-12-29T14:13:00.739Z,11045.1
2022-12-29T14:14:00.692Z,10973.3
2022-12-29T14:15:01.375Z,11066.7
2022-12-29T14:16:00.754Z,11160.1
2022-12-29T14:17:00.957Z,10796.7
2022-12-29T14:18:00.691Z,10433.2
2022-12-29T14:19:00.685Z,9862.1
2022-12-29T14:20:00.693Z,9290.9
2022-12-29T14:21:00.770Z,8719.8
2022-12-29T14:22:00.973Z,8394.3
2022-12-29T14:23:05.701Z,8068.7
2022-12-29T14:24:00.681Z,7661.3
2022-12-29T14:25:00.692Z,7253.8
2022-12-29T14:26:00.791Z,6846.3
2022-12-29T14:27:00.960Z,6404.8
2022-12-29T14:28:00.725Z,5963.3
2022-12-29T14:29:04.774Z,5535.8
2022-12-29T14:30:01.420Z,5108.3
2022-12-29T14:31:00.805Z,4680.9
2022-12-29T14:32:01.149Z,4462.9
2022-12-29T14:33:00.698Z,4244.9
2022-12-29T14:34:00.819Z,4097.7
2022-12-29T14:35:00.712Z,3950.5
2022-12-29T14:36:00.935Z,3803.3
2022-12-29T14:37:01.257Z,3607.1
2022-12-29T14:38:00.753Z,3410.9
2022-12-29T14:39:00.858Z,3432.1
2022-12-29T14:40:00.766Z,3453.3
2022-12-29T14:41:00.737Z,3474.5
2022-12-29T14:42:01.995Z,3456.1
2022-12-29T14:43:00.751Z,3437.8
2022-12-29T14:44:00.709Z,3622.3
2022-12-29T14:46:01.186Z,3991.4
2022-12-29T14:47:01.053Z,4256.7
2022-12-29T14:48:00.817Z,4522.1
2022-12-29T14:49:00.690Z,4671.6
2022-12-29T14:50:00.716Z,4821.1
2022-12-29T14:51:00.692Z,4970.7
2022-12-29T14:52:00.921Z,5093.3
2022-12-29T14:53:03.875Z,5216.0
2022-12-29T14:54:00.685Z,5163.3
2022-12-29T14:55:00.773Z,5110.7
2022-12-29T14:56:00.757Z,5058.0
2022-12-29T14:57:00.935Z,4902.3
2022-12-29T14:58:00.748Z,4746.5
2022-12-29T14:59:01.721Z,4451.5
2022-12-29T15:00:01.726Z,4156.4
2022-12-29T15:01:00.763Z,3861.3
2022-12-29T15:02:01.253Z,3479.1
2022-12-29T15:03:00.840Z,3096.9
2022-12-29T15:04:00.779Z,2887.4
2022-12-29T15:05:01.340Z,2677.9
2022-12-29T15:06:03.616Z,2468.3
2022-12-29T15:07:01.107Z,2269.5
2022-12-29T15:08:05.759Z,2070.6
2022-12-29T15:09:00.755Z,1987.2
2022-12-29T15:10:02.865Z,1903.8
2022-12-29T15:11:00.760Z,1820.4
2022-12-29T15:12:01.142Z,1767.5
2022-12-29T15:13:00.756Z,1714.5
2022-12-29T15:14:00.753Z,1651.5
2022-12-29T15:15:01.328Z,1588.4
2022-12-29T15:16:00.822Z,1525.3
2022-12-29T15:17:01.102Z,1466.3
2022-12-29T15:18:00.789Z,1407.3
2022-12-29T15:19:00.718Z,1298.8
2022-12-29T15:20:00.764Z,1190.3
2022-12-29T15:21:00.721Z,1081.7
2022-12-29T15:22:01.020Z,987.8
2022-12-29T15:23:00.699Z,893.9
2022-12-29T15:24:00.827Z,818.7
2022-12-29T15:25:01.852Z,743.5
2022-12-29T15:26:00.775Z,668.3
2022-12-29T15:27:00.941Z,604.1
2022-12-29T15:28:00.819Z,539.9
2022-12-29T15:29:00.695Z,485.3
2022-12-29T15:30:01.621Z,430.8
2022-12-29T15:31:00.773Z,376.3
2022-12-29T15:32:01.230Z,331.7
2022-12-29T15:33:00.699Z,287.2
2022-12-29T15:34:00.821Z,256.1
2022-12-29T15:35:01.462Z,224.9
2022-12-29T15:36:00.720Z,193.8
2022-12-29T15:37:01.167Z,170.7
2022-12-29T15:38:00.750Z,147.7
2022-12-29T15:39:00.710Z,131.8
2022-12-29T15:40:01.323Z,115.9
2022-12-29T15:41:00.715Z,100.1
2022-12-29T15:42:01.140Z,87.1
2022-12-29T15:43:02.804Z,74.2
2022-12-29T15:44:00.706Z,66.2
2022-12-29T15:46:00.759Z,50.2
2022-12-29T15:47:00.905Z,44.9
2022-12-29T15:48:00.741Z,39.5
2022-12-29T15:49:00.706Z,34.2
2022-12-29T15:50:01.083Z,28.9
2022-12-29T15:51:00.693Z,23.5
2022-12-29T15:52:00.963Z,20.1
2022-12-29T15:53:02.032Z,16.7
2022-12-29T15:54:00.708Z,14.6
2022-12-29T15:55:02.768Z,12.5
2022-12-29T15:56:03.371Z,10.3
2022-12-29T15:57:00.921Z,8.8
2022-12-29T15:58:00.752Z,7.3
2022-12-29T15:59:00.706Z,6.3
2022-12-29T16:00:01.398Z,5.4
2022-12-29T16:01:00.812Z,4.5
2022-12-29T16:02:02.042Z,3.9
2022-12-29T16:03:00.980Z,3.3
2022-12-29T16:04:00.851Z,2.9
2022-12-29T16:05:21.025Z,2.5
2022-12-29T16:06:00.712Z,2.1
2022-12-29T16:07:06.396Z,1.8
2022-12-29T16:08:05.703Z,1.5
2022-12-29T16:09:00.706Z,1.3
2022-12-29T16:10:01.442Z,1.1
2022-12-29T16:11:00.716Z,0.9
2022-12-29T16:12:06.848Z,0.8
2022-12-29T16:13:00.759Z,0.7
2022-12-29T16:14:05.741Z,0.6
2022-12-29T16:15:08.372Z,0.5
2022-12-29T16:17:01.149Z,0.4
2022-12-29T16:18:00.775Z,0.3
2022-12-29T16:20:00.728Z,0.2
2022-12-29T16:21:01.821Z,0.1
